Geneva, IL

11:32 AM CDT on March 29, 2015 (GMT -0500)
De Kalb Taylor Municipal | | Change Station
CLOSE
Current Station
Airport
Location: DeKalb,
Elevation: 915 ft
Nearby Weather Stations

Elev 915 ft 41.93 °N, 88.71 °W | Updated 17 minutes ago

Rain
Rain
32 °F
Feels Like 20 °F
N
20
Wind Variable Wind from South

Today
High -- | Low -- °F
--% Chance of Precip.
Yesterday
High -- | Low -- °F
Precip. -- in
6:41 AM 7:15 PM
Waxing Gibbous, 72% visible
Pressure 29.93 in
Visibility 10.0 miles
Clouds Scattered Clouds 4300 ft
Mostly Cloudy 5500 ft
Overcast 6500 ft
Windchill 20 °F
Dew Point 27 °F
Humidity 83%
Rainfall 0.03 in
Snow Depth Not available.
UV 2 out of 12
Pollen 3.90 out of 12
Air Quality Not available.
Flu Activity Not available.
METAR KDKB 291615Z AUTO 17017KT 10SM UP SCT043 BKN055 OVC065 00/M03 A2993 RMK AO2 P0001 T10021028

More Conditions Fewer Conditions

Pressure 29.93 in
Visibility 10.0 miles
Clouds Scattered Clouds 4300 ft
Mostly Cloudy 5500 ft
Overcast 6500 ft
Windchill 20 °F
Dew Point 27 °F
Humidity 83%
Rainfall 0.03 in
Snow Depth Not available.
UV 2 out of 12
Pollen 3.90 out of 12
Air Quality Not available.
Flu Activity Not available.
METAR KDKB 291615Z AUTO 17017KT 10SM UP SCT043 BKN055 OVC065 00/M03 A2993 RMK AO2 P0001 T10021028

More Conditions Fewer Conditions

10-Day Weather Forecast

Almanac

Astronomy

Mar. 29, 2015 Rise Set
Actual Time
Civil Twilight
Nautical Twilight
Astronomical Twilight
Moon
Length of Visible Light
Length of Day
Tomorrow will be .
, % of the Moon is Illuminated

Today's Extremes

State Highs State Lows

Community

WunderPhotos

Upload Photos

1,809,287 photos uploaded!

WunderBlogs® & News

Nearby

Air Quality

  Air Quality AQ Index Pollutant
Not available.

Snow Depth

Station Depth Elevation

Earthquake Activity

City Distance Mag. Time & Date
Minimum magnitude displayed is 2.5.

Coastal Water Temperatures

Place Temperature

Stations

Nearby Weather Stations

Station Location Temp. Windchill Dew Point Humidity Wind Precip. Elev Updated Type